Time;durP1;ratioP1;P1;durP2;ratioP2;P2;SDS_P1;SDS_P2;PMS_P1;PMS_P2;Temp;Humidity;BMP_temperature;BMP_pressure;BME280_temperature;BME280_humidity;BME280_pressure;Samples;Min_cycle;Max_cycle;Signal;HPM_P1;HPM_P2
2022/08/19 18:57:51;;;;;;;651.33;560.13;;;23.90;1.00;;;;;;5117377;27;20282;-83
2022/08/19 19:00:18;;;;;;;653.10;520.30;;;24.30;99.90;;;;;;5104414;28;20241;-83
2022/08/19 19:02:48;;;;;;;641.50;504.80;;;24.30;99.90;;;;;;5099192;28;20196;-85
2022/08/19 19:05:15;;;;;;;;;;;24.30;99.90;;;;;;5104426;28;20011;-90
2022/08/19 19:07:45;;;;;;;;;;;24.40;99.90;;;;;;5106979;28;19927;-88
2022/08/19 19:10:12;;;;;;;;;;;24.40;99.90;;;;;;5110419;28;19981;-85
2022/08/19 19:12:43;;;;;;;;;;;24.30;99.90;;;;;;5102846;28;20025;-85
2022/08/19 19:15:11;;;;;;;;;;;24.40;99.90;;;;;;5089649;28;19970;-83
2022/08/19 19:17:43;;;;;;;;;;;24.40;99.90;;;;;;5093673;28;19920;-83
2022/08/19 19:20:14;;;;;;;;;;;24.40;99.90;;;;;;5103237;28;19923;-84
2022/08/19 19:22:42;;;;;;;;;;;24.40;99.90;;;;;;5105072;28;19924;-83
2022/08/19 19:25:10;;;;;;;;;;;24.40;99.90;;;;;;5089514;28;19973;-85
2022/08/19 19:27:39;;;;;;;;;;;24.40;99.90;;;;;;5103471;28;19930;-90
2022/08/19 19:30:08;;;;;;;;;;;24.40;99.90;;;;;;5094627;28;20332;-90
2022/08/19 19:32:37;;;;;;;;;;;24.40;99.90;;;;;;5094024;28;19946;-83
2022/08/19 19:35:09;;;;;;;;;;;24.50;99.90;;;;;;5104396;28;19920;-84
2022/08/19 19:37:36;;;;;;;;;;;24.50;99.90;;;;;;5110129;28;20033;-84
2022/08/19 19:40:04;;;;;;;;;;;24.50;99.90;;;;;;5095404;28;19920;-84
2022/08/19 19:42:31;;;;;;;;;;;24.50;99.90;;;;;;5100175;28;20374;-89
2022/08/19 19:45:00;;;;;;;;;;;24.40;99.90;;;;;;5091606;28;19924;-88
2022/08/19 19:47:27;;;;;;;;;;;24.40;99.90;;;;;;5105209;28;19935;-84
2022/08/19 19:49:55;;;;;;;;;;;24.30;99.90;;;;;;5094288;28;19966;-84
2022/08/19 19:52:22;;;;;;;;;;;24.30;99.90;;;;;;5089089;28;20026;-85
2022/08/19 19:54:49;;;;;;;;;;;24.20;99.90;;;;;;5088659;28;19920;-87
2022/08/19 19:57:16;;;;;;;;;;;24.20;99.90;;;;;;5103287;28;20019;-89
2022/08/19 19:59:43;;;;;;;;;;;24.10;99.90;;;;;;5082027;28;19927;-88
2022/08/19 20:02:11;;;;;;;;;;;24.10;99.90;;;;;;5096060;28;19938;-88
2022/08/19 20:04:38;;;;;;;;;;;24.00;99.90;;;;;;5095825;28;19924;-84
2022/08/19 20:07:06;;;;;;;;;;;24.00;99.90;;;;;;5080188;28;19973;-89
2022/08/19 20:09:32;;;;;;;638.20;492.77;;;24.00;99.90;;;;;;5083521;28;20368;-88
2022/08/19 20:11:59;;;;;;;640.73;506.97;;;23.90;1.00;;;;;;5087081;28;20555;-89
2022/08/19 20:14:30;;;;;;;637.17;493.37;;;23.80;1.00;;;;;;5075231;28;20219;-91
2022/08/19 20:16:58;;;;;;;639.37;495.80;;;23.80;1.00;;;;;;5089050;28;20227;-84
2022/08/19 20:19:29;;;;;;;642.03;503.27;;;23.70;1.00;;;;;;5075215;28;20203;-89
2022/08/19 20:21:57;;;;;;;641.27;500.67;;;23.70;1.00;;;;;;5076500;28;20217;-89
2022/08/19 20:24:31;;;;;;;641.57;497.53;;;23.50;1.00;;;;;;5087145;28;20634;-84
2022/08/19 20:26:59;;;;;;;644.23;498.63;;;23.50;1.00;;;;;;5076194;28;20708;-85
2022/08/19 20:29:27;;;;;;;646.17;496.47;;;23.50;1.00;;;;;;5074488;28;20200;-84
2022/08/19 20:31:54;;;;;;;642.30;494.40;;;23.40;1.00;;;;;;5088977;28;20245;-85
2022/08/19 20:34:21;;;;;;;646.30;504.73;;;23.40;99.90;;;;;;5094955;28;20199;-88
2022/08/19 20:36:48;;;;;;;643.30;491.90;;;23.40;99.90;;;;;;5094242;28;20215;-89
2022/08/19 20:39:15;;;;;;;642.03;494.07;;;23.50;99.90;;;;;;5094903;28;20199;-86
2022/08/19 20:41:43;;;;;;;641.67;492.80;;;23.50;99.90;;;;;;5080789;28;20192;-84
2022/08/19 20:44:11;;;;;;;646.20;494.97;;;23.50;99.90;;;;;;5094384;28;20557;-84
2022/08/19 20:46:38;;;;;;;642.77;491.57;;;23.50;99.90;;;;;;5080217;28;20200;-84
2022/08/19 20:49:05;;;;;;;643.50;494.67;;;23.50;99.90;;;;;;5074537;28;20195;-85
2022/08/19 20:51:32;;;;;;;636.90;479.77;;;23.40;99.90;;;;;;5074414;28;20193;-88
2022/08/19 20:53:59;;;;;;;643.57;494.83;;;23.40;99.90;;;;;;5094177;28;20184;-87
2022/08/19 20:56:27;;;;;;;645.83;484.50;;;23.30;99.90;;;;;;5090930;28;20235;-88
2022/08/19 20:58:55;;;;;;;645.73;490.07;;;23.30;99.90;;;;;;5074067;28;20200;-87
2022/08/19 21:01:23;;;;;;;646.87;490.30;;;23.20;1.00;;;;;;5074102;28;20192;-84
2022/08/19 21:03:51;;;;;;;641.33;480.47;;;23.30;1.00;;;;;;5074196;28;20209;-84
2022/08/19 21:06:18;;;;;;;646.30;483.77;;;23.30;1.00;;;;;;5074239;28;20203;-86
2022/08/19 21:08:45;;;;;;;643.20;481.00;;;23.20;1.00;;;;;;5073270;28;20254;-89
2022/08/19 21:11:13;;;;;;;642.17;475.73;;;23.20;1.00;;;;;;5074177;28;20200;-85
2022/08/19 21:13:40;;;;;;;641.07;479.60;;;23.20;1.00;;;;;;5077564;28;20282;-84
2022/08/19 21:16:09;;;;;;;644.93;483.97;;;23.20;1.00;;;;;;5091665;28;20219;-84
2022/08/19 21:18:36;;;;;;;643.10;474.80;;;23.20;1.00;;;;;;5077054;28;20196;-88
2022/08/19 21:21:03;;;;;;;642.70;477.20;;;23.10;1.00;;;;;;5073798;28;20196;-84
2022/08/19 21:23:31;;;;;;;636.20;478.40;;;23.10;1.00;;;;;;5074067;28;20192;-86
2022/08/19 21:26:00;;;;;;;638.37;473.33;;;23.10;1.00;;;;;;5093404;28;20763;-86
2022/08/19 21:28:27;;;;;;;636.93;479.97;;;23.00;1.00;;;;;;5080404;28;20196;-85
2022/08/19 21:30:56;;;;;;;641.97;482.33;;;23.00;1.00;;;;;;5087455;28;20654;-84
2022/08/19 21:33:25;;;;;;;637.87;471.10;;;23.00;1.00;;;;;;5073249;28;20275;-86
2022/08/19 21:35:52;;;;;;;638.47;471.57;;;23.00;1.00;;;;;;5073316;28;20189;-87
2022/08/19 21:38:19;;;;;;;641.63;471.60;;;23.00;1.00;;;;;;5073256;28;20207;-88
2022/08/19 21:40:46;;;;;;;638.53;469.03;;;23.00;31.10;;;;;;5090796;28;20613;-84
2022/08/19 21:43:13;;;;;;;636.30;458.70;;;23.00;46.70;;;;;;5083481;28;20196;-84
2022/08/19 21:45:40;;;;;;;637.47;470.50;;;23.00;99.90;;;;;;5074245;28;20545;-88
2022/08/19 21:48:08;;;;;;;639.37;468.87;;;23.00;99.90;;;;;;5085639;28;20196;-85
2022/08/19 21:50:36;;;;;;;639.83;462.83;;;22.90;99.90;;;;;;5073240;28;20220;-90
2022/08/19 21:53:03;;;;;;;640.03;468.90;;;22.90;99.90;;;;;;5081728;28;20242;-83
2022/08/19 21:55:30;;;;;;;638.73;465.83;;;23.00;99.90;;;;;;5092957;28;20656;-85
2022/08/19 21:57:58;;;;;;;635.65;462.85;;;23.00;99.90;;;;;;5078640;28;20739;-87
2022/08/19 22:00:27;;;;;;;;;;;22.90;99.90;;;;;;5073229;28;19961;-84
2022/08/19 22:02:54;;;;;;;641.47;463.77;;;22.90;99.90;;;;;;5080063;28;20014;-90
2022/08/19 22:05:23;;;;;;;641.97;464.17;;;22.80;99.90;;;;;;5092512;28;20684;-84
2022/08/19 22:07:53;;;;;;;635.40;460.20;;;22.80;1.00;;;;;;5081379;28;20291;-86
2022/08/19 22:10:21;;;;;;;;;;;22.80;1.00;;;;;;5092234;28;20316;-84
2022/08/19 22:12:47;;;;;;;;;;;22.70;1.00;;;;;;5082105;28;19999;-83
2022/08/19 22:15:15;;;;;;;;;;;22.70;1.00;;;;;;5073306;28;19931;-85
2022/08/19 22:17:42;;;;;;;;;;;22.70;1.00;;;;;;5081968;28;20297;-86
2022/08/19 22:20:10;;;;;;;;;;;22.70;1.00;;;;;;5082645;28;19924;-89
2022/08/19 22:22:38;;;;;;;;;;;22.60;1.00;;;;;;5072853;28;19920;-87
2022/08/19 22:25:08;;;;;;;;;;;22.60;1.00;;;;;;5086925;28;19920;-84
2022/08/19 22:27:35;;;;;;;;;;;22.60;1.00;;;;;;5093120;28;19920;-87
2022/08/19 22:30:02;;;;;;;;;;;22.60;1.00;;;;;;5083967;28;19960;-85
2022/08/19 22:32:29;;;;;;;;;;;22.60;13.40;;;;;;5072996;28;19970;-88
2022/08/19 22:34:57;;;;;;;;;;;22.60;1.00;;;;;;5083942;28;19920;-88
2022/08/19 22:37:24;;;;;;;;;;;22.60;1.00;;;;;;5093131;28;19920;-89
2022/08/19 22:39:51;;;;;;;;;;;22.60;1.00;;;;;;5083530;28;19920;-87
2022/08/19 22:42:20;;;;;;;;;;;22.60;1.00;;;;;;5088317;28;19966;-88
2022/08/19 22:44:46;;;;;;;;;;;22.60;1.00;;;;;;5085011;28;20332;-85
2022/08/19 22:47:13;;;;;;;;;;;22.60;1.00;;;;;;5086633;28;19920;-85
2022/08/19 22:49:40;;;;;;;;;;;22.50;1.00;;;;;;5078896;28;19946;-90
2022/08/19 22:52:16;;;;;;;;;;;22.50;1.00;;;;;;5080680;28;19924;-90
2022/08/19 22:54:44;;;;;;;;;;;22.50;1.00;;;;;;5072446;28;19920;-91
2022/08/19 22:57:12;;;;;;;636.40;454.17;;;22.50;1.00;;;;;;5072323;28;20069;-88
2022/08/19 22:59:40;;;;;;;636.33;453.97;;;22.40;1.00;;;;;;5072110;28;20699;-87
2022/08/19 23:02:09;;;;;;;637.30;455.30;;;22.40;1.00;;;;;;5072058;28;20255;-88
2022/08/19 23:04:36;;;;;;;637.00;449.87;;;22.30;1.00;;;;;;5085721;28;20203;-85
2022/08/19 23:07:04;;;;;;;660.93;547.23;;;22.30;1.00;;;;;;5073114;28;20639;-84
2022/08/19 23:09:31;;;;;;;645.43;488.40;;;22.30;1.00;;;;;;5071979;28;20207;-89
2022/08/19 23:11:59;;;;;;;644.73;477.23;;;22.20;1.00;;;;;;5086591;28;20195;-88
2022/08/19 23:14:26;;;;;;;644.73;485.47;;;22.20;1.00;;;;;;5072387;28;20192;-84
2022/08/19 23:16:55;;;;;;;638.47;457.77;;;22.20;1.00;;;;;;5089147;28;20215;-86
2022/08/19 23:19:22;;;;;;;635.43;445.30;;;22.10;1.00;;;;;;5085869;28;20606;-84
2022/08/19 23:21:51;;;;;;;642.83;462.97;;;22.10;1.00;;;;;;5078218;28;20269;-88
2022/08/19 23:24:18;;;;;;;643.53;459.67;;;22.10;1.00;;;;;;5084689;28;20571;-90
2022/08/19 23:32:12;;;;;;;642.57;453.97;;;22.10;1.00;;;;;;5089270;28;20690;-85
2022/08/19 23:34:39;;;;;;;640.63;455.77;;;22.10;39.20;;;;;;5088869;28;20241;-87
2022/08/19 23:37:06;;;;;;;643.37;479.70;;;22.10;99.90;;;;;;5075911;28;20215;-85
2022/08/19 23:39:33;;;;;;;644.47;481.50;;;22.10;99.90;;;;;;5087480;28;20657;-90
2022/08/19 23:42:01;;;;;;;654.77;523.27;;;22.20;99.90;;;;;;5077897;28;20184;-87
2022/08/19 23:44:28;;;;;;;683.13;595.90;;;22.20;99.90;;;;;;5085528;28;20227;-85
2022/08/19 23:46:55;;;;;;;647.20;497.43;;;22.20;99.90;;;;;;5079233;28;20597;-83
2022/08/19 23:49:25;;;;;;;635.53;447.67;;;22.20;99.90;;;;;;5095699;28;20252;-84
2022/08/19 23:51:53;;;;;;;644.40;483.60;;;22.20;99.90;;;;;;5081122;28;20689;-87
2022/08/19 23:54:22;;;;;;;650.07;502.07;;;22.30;99.90;;;;;;5095473;28;20203;-84
2022/08/19 23:56:49;;;;;;;653.93;520.90;;;22.30;99.90;;;;;;5075255;28;21060;-87
2022/08/19 23:59:17;;;;;;;635.33;450.73;;;22.30;99.90;;;;;;5075522;28;20197;-88
